createdAt,value
2018-03-03T00:00:46.868Z,0.1
2018-03-03T00:01:48.932Z,0.1
2018-03-03T00:02:50.910Z,0.2
2018-03-03T00:03:52.900Z,0.3
2018-03-03T00:04:56.923Z,0.2
2018-03-03T00:06:01.685Z,0.3
2018-03-03T00:07:03.871Z,0.2
2018-03-03T00:08:05.965Z,0.2
2018-03-03T00:09:08.659Z,0.2
2018-03-03T00:10:10.698Z,0.3
2018-03-03T00:11:13.797Z,0.2
2018-03-03T00:12:16.058Z,0.2
2018-03-03T00:13:18.017Z,0.1
2018-03-03T00:14:20.825Z,0.2
2018-03-03T00:15:22.975Z,0.1
2018-03-03T00:16:25.243Z,0.1
2018-03-03T00:17:27.414Z,0.2
2018-03-03T00:18:29.532Z,0.1
2018-03-03T00:19:31.590Z,0.1
2018-03-03T00:20:33.843Z,0.1
2018-03-03T00:21:36.791Z,0.1
2018-03-03T00:22:38.778Z,0.1
2018-03-03T00:23:40.800Z,0.1
2018-03-03T00:24:43.794Z,0.2
2018-03-03T00:25:45.949Z,0.2
2018-03-03T00:26:47.947Z,0.1
2018-03-03T00:27:50.149Z,0.1
2018-03-03T00:28:53.125Z,0.1
2018-03-03T00:29:55.143Z,0.1
2018-03-03T00:30:57.092Z,0.0
2018-03-03T00:31:58.825Z,0.1
2018-03-03T00:33:00.960Z,0.1
2018-03-03T00:34:03.032Z,0.1
2018-03-03T00:35:04.977Z,0.1
2018-03-03T00:36:07.550Z,0.1
2018-03-03T00:37:09.738Z,0.1
2018-03-03T00:38:11.841Z,0.2
2018-03-03T00:39:13.751Z,0.1
2018-03-03T00:40:15.595Z,0.1
2018-03-03T00:41:17.668Z,0.0
2018-03-03T00:42:20.694Z,0.0
2018-03-03T00:43:22.659Z,-0.1
2018-03-03T00:44:24.785Z,-0.1
2018-03-03T00:45:26.761Z,-0.1
2018-03-03T00:46:29.836Z,-0.1
2018-03-03T00:47:32.032Z,0.0
2018-03-03T00:48:34.603Z,0.1
2018-03-03T00:49:36.651Z,0.1
2018-03-03T00:50:38.629Z,0.0
2018-03-03T00:51:40.923Z,0.0
2018-03-03T00:52:43.217Z,-0.1
2018-03-03T00:53:45.317Z,-0.1
2018-03-03T00:54:48.295Z,-0.1
2018-03-03T00:55:50.257Z,-0.1
2018-03-03T00:56:52.430Z,-0.2
2018-03-03T00:57:54.693Z,-0.2
2018-03-03T00:59:03.812Z,-0.2
2018-03-03T01:00:06.084Z,-0.2
2018-03-03T01:01:08.343Z,-0.3
2018-03-03T01:02:10.502Z,-0.1
2018-03-03T01:03:12.705Z,-0.1
2018-03-03T01:04:15.746Z,-0.1
2018-03-03T01:05:18.693Z,-0.2
2018-03-03T01:06:20.842Z,-0.2
2018-03-03T01:07:25.725Z,-0.1
2018-03-03T01:08:27.903Z,-0.2
2018-03-03T01:09:30.166Z,-0.2
2018-03-03T01:10:32.197Z,-0.2
2018-03-03T01:11:34.007Z,-0.2
2018-03-03T01:12:35.894Z,-0.3
2018-03-03T01:13:37.712Z,-0.3
2018-03-03T01:14:39.708Z,-0.3
2018-03-03T01:15:41.629Z,-0.3
2018-03-03T01:16:43.725Z,-0.3
2018-03-03T01:17:45.512Z,-0.2
2018-03-03T01:18:50.284Z,-0.2
2018-03-03T01:19:52.371Z,-0.1
2018-03-03T01:20:54.634Z,-0.1
2018-03-03T01:21:56.894Z,-0.1
2018-03-03T01:23:01.883Z,-0.2
2018-03-03T01:24:03.893Z,-0.3
2018-03-03T01:25:06.095Z,-0.4
2018-03-03T01:26:08.296Z,-0.4
2018-03-03T01:27:10.549Z,-0.4
2018-03-03T01:28:12.683Z,-0.3
2018-03-03T01:29:15.791Z,-0.3
2018-03-03T01:30:17.991Z,-0.3
2018-03-03T01:31:20.824Z,-0.3
2018-03-03T01:32:23.891Z,-0.3
2018-03-03T01:33:25.980Z,-0.2
2018-03-03T01:34:28.161Z,-0.3
2018-03-03T01:35:30.243Z,-0.4
2018-03-03T01:36:32.503Z,-0.2
2018-03-03T01:37:34.584Z,-0.3
2018-03-03T01:38:37.250Z,-0.2
2018-03-03T01:39:39.478Z,-0.2
2018-03-03T01:40:42.299Z,-0.1
2018-03-03T01:41:44.406Z,-0.3
2018-03-03T01:42:46.623Z,-0.2
2018-03-03T01:43:48.494Z,-0.2
2018-03-03T01:44:50.581Z,-0.1
2018-03-03T01:45:55.368Z,-0.1
2018-03-03T01:46:58.389Z,-0.1
2018-03-03T01:48:00.555Z,-0.1
2018-03-03T01:49:03.038Z,-0.1
2018-03-03T01:50:05.001Z,-0.1
2018-03-03T01:51:06.799Z,-0.1
2018-03-03T01:52:08.610Z,-0.1
2018-03-03T01:53:11.357Z,-0.1
2018-03-03T01:54:13.014Z,-0.1
2018-03-03T01:55:14.974Z,-0.1
2018-03-03T01:56:16.730Z,0.0
2018-03-03T01:57:18.509Z,-0.1
2018-03-03T01:58:20.731Z,-0.1
2018-03-03T01:59:37.827Z,-0.1
2018-03-03T02:00:39.532Z,-0.1
2018-03-03T02:01:41.308Z,-0.1
2018-03-03T02:02:43.389Z,-0.1
2018-03-03T02:03:45.252Z,-0.0
2018-03-03T02:04:47.389Z,-0.0
2018-03-03T02:05:49.616Z,0.1
2018-03-03T02:06:51.692Z,0.0
2018-03-03T02:07:53.850Z,0.1
2018-03-03T02:08:56.136Z,0.1
2018-03-03T02:09:58.598Z,0.1
2018-03-03T02:11:01.258Z,0.1
2018-03-03T02:12:04.232Z,0.1
2018-03-03T02:13:06.237Z,0.1
2018-03-03T02:14:08.434Z,0.1
2018-03-03T02:15:10.462Z,0.0
2018-03-03T02:16:12.740Z,0.0
2018-03-03T02:17:14.780Z,0.1
2018-03-03T02:18:17.108Z,0.0
2018-03-03T02:19:19.227Z,0.1
2018-03-03T02:20:21.162Z,0.0
2018-03-03T02:21:22.982Z,0.1
2018-03-03T02:22:24.771Z,0.0
2018-03-03T02:23:27.871Z,0.1
2018-03-03T02:24:29.642Z,0.1
2018-03-03T02:25:32.368Z,0.0
2018-03-03T02:26:34.563Z,0.0
2018-03-03T02:27:39.364Z,0.1
2018-03-03T02:28:41.162Z,0.1
2018-03-03T02:29:44.169Z,0.1
2018-03-03T02:30:46.243Z,0.1
2018-03-03T02:31:48.358Z,0.1
2018-03-03T02:32:50.486Z,0.1
2018-03-03T02:33:53.255Z,0.1
2018-03-03T02:34:55.389Z,0.1
2018-03-03T02:35:57.357Z,0.1
2018-03-03T02:36:59.508Z,0.1
2018-03-03T02:38:02.333Z,0.1
2018-03-03T02:39:04.173Z,0.1
2018-03-03T02:40:06.114Z,0.2
2018-03-03T02:41:08.240Z,0.2
2018-03-03T02:42:10.269Z,0.1
2018-03-03T02:43:12.304Z,0.1
2018-03-03T02:44:14.092Z,0.1
2018-03-03T02:45:16.333Z,0.0
2018-03-03T02:46:18.457Z,0.0
2018-03-03T02:47:20.726Z,-0.1
2018-03-03T02:48:22.844Z,-0.1
2018-03-03T02:49:25.151Z,-0.1
2018-03-03T02:50:27.227Z,0.0
2018-03-03T02:51:29.480Z,0.1
2018-03-03T02:52:32.353Z,0.1
2018-03-03T02:53:35.252Z,0.1
2018-03-03T02:54:37.329Z,0.1
2018-03-03T02:55:39.552Z,0.1
2018-03-03T02:56:41.596Z,0.1
2018-03-03T02:57:43.768Z,0.1
2018-03-03T02:58:45.957Z,0.1
2018-03-03T02:59:48.794Z,0.1
2018-03-03T03:00:51.082Z,0.1
2018-03-03T03:01:53.251Z,0.1
2018-03-03T03:02:55.429Z,0.0
2018-03-03T03:03:57.512Z,0.1
2018-03-03T03:04:59.438Z,0.1
2018-03-03T03:06:01.519Z,0.2
2018-03-03T03:07:03.987Z,0.1
2018-03-03T03:08:06.776Z,0.2
2018-03-03T03:09:09.682Z,0.1
2018-03-03T03:10:11.747Z,0.1
2018-03-03T03:11:13.468Z,0.1
2018-03-03T03:12:15.505Z,0.0
2018-03-03T03:13:17.490Z,0.0
2018-03-03T03:14:20.161Z,0.1
2018-03-03T03:15:21.910Z,0.0
2018-03-03T03:16:23.836Z,0.0
2018-03-03T03:17:25.628Z,0.1
2018-03-03T03:18:27.471Z,-0.0
2018-03-03T03:19:29.257Z,0.1
2018-03-03T03:20:31.034Z,0.1
2018-03-03T03:21:33.092Z,0.1
2018-03-03T03:22:34.803Z,0.1
2018-03-03T03:23:36.495Z,0.0
2018-03-03T03:24:38.542Z,0.0
2018-03-03T03:25:40.478Z,-0.0
2018-03-03T03:26:42.533Z,0.1
2018-03-03T03:27:44.723Z,0.1
2018-03-03T03:28:46.685Z,0.0
2018-03-03T03:29:48.382Z,0.1
2018-03-03T03:30:51.301Z,0.1
2018-03-03T03:31:53.103Z,0.1
2018-03-03T03:33:01.495Z,0.3
2018-03-03T03:34:03.709Z,0.1
2018-03-03T03:35:05.748Z,0.1
2018-03-03T03:36:07.904Z,0.1
2018-03-03T03:37:09.994Z,0.1
2018-03-03T03:38:12.060Z,0.1
2018-03-03T03:39:16.756Z,0.2
2018-03-03T03:40:18.844Z,0.1
2018-03-03T03:41:20.987Z,0.2
2018-03-03T03:42:23.716Z,0.2
2018-03-03T03:43:25.784Z,0.3
2018-03-03T03:44:27.813Z,0.2
2018-03-03T03:45:30.720Z,0.2
2018-03-03T03:46:33.468Z,0.2
2018-03-03T03:47:36.133Z,0.2
2018-03-03T03:48:38.344Z,0.2
2018-03-03T03:49:40.588Z,0.2
2018-03-03T03:50:42.868Z,0.2
2018-03-03T03:51:45.076Z,0.3
2018-03-03T03:52:47.146Z,0.3
2018-03-03T03:53:49.434Z,0.3
2018-03-03T03:54:51.668Z,0.3
2018-03-03T03:55:53.842Z,0.4
2018-03-03T03:56:56.925Z,0.3
2018-03-03T03:57:59.044Z,0.4
2018-03-03T03:59:01.168Z,0.3
2018-03-03T04:00:03.440Z,0.3
2018-03-03T04:01:05.531Z,0.4
2018-03-03T04:02:07.442Z,0.4
2018-03-03T04:03:09.558Z,0.3
2018-03-03T04:04:11.694Z,0.4
2018-03-03T04:05:13.813Z,0.4
2018-03-03T04:06:16.139Z,0.4
2018-03-03T04:07:18.351Z,0.4
2018-03-03T04:08:20.546Z,0.4
2018-03-03T04:09:22.687Z,0.5
2018-03-03T04:10:24.761Z,0.5
2018-03-03T04:11:27.003Z,0.4
2018-03-03T04:12:35.760Z,0.4
2018-03-03T04:13:37.888Z,0.4
2018-03-03T04:14:39.986Z,0.4
2018-03-03T04:15:48.859Z,0.3
2018-03-03T04:16:51.169Z,0.4
2018-03-03T04:17:53.286Z,0.3
2018-03-03T04:18:55.408Z,0.3
2018-03-03T04:19:57.607Z,0.4
2018-03-03T04:20:59.732Z,0.4
2018-03-03T04:22:01.937Z,0.5
2018-03-03T04:23:04.777Z,0.5
2018-03-03T04:24:07.143Z,0.5
2018-03-03T04:25:09.218Z,0.5
2018-03-03T04:26:11.498Z,0.5
2018-03-03T04:27:13.592Z,0.6
2018-03-03T04:28:15.802Z,0.6
2018-03-03T04:29:18.707Z,0.6
2018-03-03T04:30:20.878Z,0.6
2018-03-03T04:31:23.095Z,0.6
2018-03-03T04:32:25.323Z,0.6
2018-03-03T04:33:27.445Z,0.6
2018-03-03T04:34:29.590Z,0.6
2018-03-03T04:35:31.828Z,0.5
2018-03-03T04:36:33.981Z,0.5
2018-03-03T04:37:36.200Z,0.4
2018-03-03T04:38:38.387Z,0.5
2018-03-03T04:39:41.359Z,0.4
2018-03-03T04:40:43.461Z,0.4
2018-03-03T04:41:45.621Z,0.5
2018-03-03T04:42:47.956Z,0.5
2018-03-03T04:43:50.210Z,0.5
2018-03-03T04:44:52.469Z,0.6
2018-03-03T04:45:54.912Z,0.5
2018-03-03T04:46:56.835Z,0.5
2018-03-03T04:47:59.026Z,0.5
2018-03-03T04:49:00.754Z,0.5
2018-03-03T04:50:02.482Z,0.5
2018-03-03T04:51:04.622Z,0.5
2018-03-03T04:52:06.872Z,0.6
2018-03-03T04:53:09.736Z,0.6
2018-03-03T04:54:12.110Z,0.6
2018-03-03T04:55:14.381Z,0.6
2018-03-03T04:56:16.705Z,0.5
2018-03-03T04:57:19.787Z,0.6
2018-03-03T04:58:21.958Z,0.5
2018-03-03T04:59:24.086Z,0.5
2018-03-03T05:00:26.296Z,0.5
2018-03-03T05:01:28.658Z,0.5
2018-03-03T05:02:30.707Z,0.5
2018-03-03T05:03:32.984Z,0.5
2018-03-03T05:04:35.245Z,0.5
2018-03-03T05:05:37.532Z,0.5
2018-03-03T05:06:39.758Z,0.6
2018-03-03T05:07:48.809Z,0.5
2018-03-03T05:08:51.164Z,0.6
2018-03-03T05:09:53.254Z,0.5
2018-03-03T05:10:55.510Z,0.6
2018-03-03T05:11:57.612Z,0.5
2018-03-03T05:12:59.794Z,0.6
2018-03-03T05:14:02.021Z,0.5
2018-03-03T05:15:04.305Z,0.5
2018-03-03T05:16:07.442Z,0.6
2018-03-03T05:17:09.613Z,0.5
2018-03-03T05:18:11.839Z,0.6
2018-03-03T05:19:14.773Z,0.5
2018-03-03T05:20:17.030Z,0.6
2018-03-03T05:21:19.084Z,0.6
2018-03-03T05:22:21.338Z,0.5
2018-03-03T05:23:23.511Z,0.6
2018-03-03T05:24:26.436Z,0.5
2018-03-03T05:25:29.366Z,0.5
2018-03-03T05:26:31.606Z,0.5
2018-03-03T05:27:33.820Z,0.5
2018-03-03T05:28:35.785Z,0.6
2018-03-03T05:29:37.715Z,0.6
2018-03-03T05:30:39.859Z,0.6
2018-03-03T05:31:42.040Z,0.6
2018-03-03T05:32:44.782Z,0.7
2018-03-03T05:33:47.075Z,0.7
2018-03-03T05:34:49.186Z,0.7
2018-03-03T05:35:51.322Z,0.7
2018-03-03T05:38:06.661Z,0.7
2018-03-03T05:39:08.643Z,0.7
2018-03-03T05:40:10.708Z,0.6
2018-03-03T05:41:12.551Z,0.6
2018-03-03T05:42:15.187Z,0.6
2018-03-03T05:43:17.333Z,0.6
2018-03-03T05:44:19.446Z,0.6
2018-03-03T05:45:21.523Z,0.5
2018-03-03T05:46:24.146Z,0.5
2018-03-03T05:47:26.170Z,0.6
2018-03-03T05:48:33.176Z,0.6
2018-03-03T05:49:35.185Z,0.6
2018-03-03T05:50:37.916Z,0.6
2018-03-03T05:51:40.088Z,0.7
2018-03-03T05:52:42.124Z,0.7
2018-03-03T05:53:44.109Z,0.6
2018-03-03T05:54:46.232Z,0.6
2018-03-03T05:55:48.594Z,0.6
2018-03-03T05:56:50.350Z,0.6
2018-03-03T05:57:52.409Z,0.7
2018-03-03T05:58:54.236Z,0.7
2018-03-03T05:59:56.702Z,0.7
2018-03-03T06:00:58.683Z,0.6
2018-03-03T06:02:00.922Z,0.6
2018-03-03T06:03:03.968Z,0.6
2018-03-03T06:04:06.056Z,0.6
2018-03-03T06:05:08.678Z,0.6
2018-03-03T06:06:10.716Z,0.5
2018-03-03T06:07:18.477Z,0.6
2018-03-03T06:08:20.517Z,0.5
2018-03-03T06:09:22.339Z,0.6
2018-03-03T06:10:24.336Z,0.6
2018-03-03T06:11:27.931Z,0.5
2018-03-03T06:12:30.062Z,0.5
2018-03-03T06:13:31.843Z,0.5
2018-03-03T06:14:33.678Z,0.6
2018-03-03T06:15:35.849Z,0.5
2018-03-03T06:16:38.902Z,0.6
2018-03-03T06:17:41.107Z,0.6
2018-03-03T06:18:43.228Z,0.6
2018-03-03T06:19:45.240Z,0.5
2018-03-03T06:20:48.042Z,0.5
2018-03-03T06:21:49.891Z,0.5
2018-03-03T06:22:52.776Z,0.5
2018-03-03T06:23:54.846Z,0.5
2018-03-03T06:24:59.668Z,0.5
2018-03-03T06:26:01.857Z,0.5
2018-03-03T06:27:04.630Z,0.6
2018-03-03T06:28:07.725Z,0.6
2018-03-03T06:29:09.958Z,0.5
2018-03-03T06:30:12.705Z,0.6
2018-03-03T06:31:14.755Z,0.6
2018-03-03T06:32:16.813Z,0.5
2018-03-03T06:33:18.783Z,0.5
2018-03-03T06:34:20.998Z,0.5
2018-03-03T06:35:23.019Z,0.5
2018-03-03T06:36:30.660Z,0.4
2018-03-03T06:37:32.373Z,0.4
2018-03-03T06:38:34.545Z,0.4
2018-03-03T06:40:47.382Z,0.5
2018-03-03T06:41:49.179Z,0.4
2018-03-03T06:42:51.070Z,0.4
2018-03-03T06:43:53.057Z,0.5
2018-03-03T06:44:56.383Z,0.4
2018-03-03T06:45:58.380Z,0.4
2018-03-03T06:47:00.807Z,0.4
2018-03-03T06:48:02.922Z,0.3
2018-03-03T06:49:04.740Z,0.3
2018-03-03T06:50:06.907Z,0.3
2018-03-03T06:51:10.918Z,0.3
2018-03-03T06:52:13.045Z,0.3
2018-03-03T06:53:15.008Z,0.3
2018-03-03T06:54:17.544Z,0.3
2018-03-03T06:55:19.544Z,0.3
2018-03-03T06:56:22.384Z,0.3
2018-03-03T06:57:24.591Z,0.3
2018-03-03T06:58:26.843Z,0.3
2018-03-03T06:59:29.522Z,0.3
2018-03-03T07:00:31.614Z,0.4
2018-03-03T07:01:34.418Z,0.3
2018-03-03T07:02:36.558Z,0.3
2018-03-03T07:03:39.320Z,0.3
2018-03-03T07:04:42.243Z,0.4
2018-03-03T07:05:44.198Z,0.3
2018-03-03T07:06:46.399Z,0.3
2018-03-03T07:07:48.525Z,0.3
2018-03-03T07:08:50.714Z,0.3
2018-03-03T07:09:52.769Z,0.3
2018-03-03T07:10:54.640Z,0.3
2018-03-03T07:11:56.323Z,0.3
2018-03-03T07:12:58.010Z,0.5
2018-03-03T07:13:59.680Z,0.4
2018-03-03T07:15:01.378Z,0.4
2018-03-03T07:16:03.079Z,0.4
2018-03-03T07:17:05.108Z,0.4
2018-03-03T07:18:06.799Z,0.5
2018-03-03T07:19:08.493Z,0.5
2018-03-03T07:20:11.396Z,0.5
2018-03-03T07:21:14.415Z,0.5
2018-03-03T07:22:15.966Z,0.4
2018-03-03T07:23:17.661Z,0.4
2018-03-03T07:24:19.429Z,0.4
2018-03-03T07:25:21.622Z,0.4
2018-03-03T07:26:23.591Z,0.4
2018-03-03T07:27:25.338Z,0.4
2018-03-03T07:28:29.043Z,0.4
2018-03-03T07:29:30.736Z,0.4
2018-03-03T07:30:32.486Z,0.4
2018-03-03T07:31:34.220Z,0.5
2018-03-03T07:32:35.979Z,0.5
2018-03-03T07:33:37.759Z,0.4
2018-03-03T07:34:39.484Z,0.5
2018-03-03T07:35:41.218Z,0.5
2018-03-03T07:36:45.154Z,0.4
2018-03-03T07:37:46.962Z,0.5
2018-03-03T07:38:48.677Z,0.5
2018-03-03T07:39:51.534Z,0.5
2018-03-03T07:40:54.361Z,0.4
2018-03-03T07:41:56.259Z,0.5
2018-03-03T07:42:58.920Z,0.5
2018-03-03T07:44:00.567Z,0.6
2018-03-03T07:45:02.311Z,0.6
2018-03-03T07:46:04.041Z,0.6
2018-03-03T07:47:05.756Z,0.6
2018-03-03T07:48:09.823Z,0.7
2018-03-03T07:49:13.229Z,0.6
2018-03-03T07:50:14.886Z,0.6
2018-03-03T07:51:16.744Z,0.6
2018-03-03T07:52:19.306Z,0.5
2018-03-03T07:53:21.157Z,0.6
2018-03-03T07:54:23.539Z,0.7
2018-03-03T07:55:25.562Z,0.7
2018-03-03T07:56:27.327Z,0.8
2018-03-03T07:57:29.186Z,0.8
2018-03-03T07:58:32.229Z,0.7
2018-03-03T07:59:34.684Z,0.9
2018-03-03T08:00:37.068Z,0.9
2018-03-03T08:01:38.868Z,0.8
2018-03-03T08:02:41.989Z,0.8
2018-03-03T08:03:45.284Z,0.8
2018-03-03T08:04:47.975Z,0.8
2018-03-03T08:05:49.736Z,0.8
2018-03-03T08:06:51.473Z,0.8
2018-03-03T08:07:53.852Z,0.9
2018-03-03T08:08:56.469Z,0.9
2018-03-03T08:09:59.640Z,0.9
2018-03-03T08:11:01.336Z,1.0
2018-03-03T08:12:03.014Z,0.9
2018-03-03T08:13:04.759Z,1.0
2018-03-03T08:14:06.800Z,1.0
2018-03-03T08:15:08.589Z,1.0
2018-03-03T08:16:10.650Z,1.0
2018-03-03T08:17:12.747Z,1.0
2018-03-03T08:18:15.305Z,1.1
2018-03-03T08:19:17.031Z,1.2
2018-03-03T08:20:18.797Z,1.1
2018-03-03T08:21:20.665Z,1.0
2018-03-03T08:22:22.449Z,1.1
2018-03-03T08:23:24.236Z,1.0
2018-03-03T08:24:26.076Z,1.1
2018-03-03T08:25:31.500Z,1.2
2018-03-03T08:26:32.965Z,1.3
2018-03-03T08:27:35.514Z,1.0
2018-03-03T08:28:37.263Z,1.0
2018-03-03T08:29:43.008Z,1.0
2018-03-03T08:30:44.712Z,0.9
2018-03-03T08:31:47.009Z,1.0
2018-03-03T08:32:48.781Z,1.0
2018-03-03T08:33:50.650Z,1.0
2018-03-03T08:34:52.593Z,1.0
2018-03-03T08:35:54.301Z,1.0
2018-03-03T08:36:56.261Z,1.1
2018-03-03T08:37:57.991Z,1.2
2018-03-03T08:38:59.719Z,1.2
2018-03-03T08:40:01.443Z,1.3
2018-03-03T08:41:03.578Z,1.4
2018-03-03T08:42:05.377Z,1.4
2018-03-03T08:43:07.081Z,1.3
2018-03-03T08:44:08.795Z,1.2
2018-03-03T08:45:10.962Z,1.4
2018-03-03T08:46:12.668Z,1.4
2018-03-03T08:47:14.712Z,1.5
2018-03-03T08:48:16.420Z,1.5
2018-03-03T08:49:18.116Z,1.4
2018-03-03T08:50:19.868Z,1.5
2018-03-03T08:51:21.732Z,1.6
2018-03-03T08:52:24.133Z,1.8
2018-03-03T08:53:25.859Z,2.1
2018-03-03T08:54:28.333Z,2.2
2018-03-03T08:55:30.119Z,2.4
2018-03-03T08:56:31.850Z,2.5
2018-03-03T08:57:33.641Z,2.4
2018-03-03T08:58:35.618Z,2.1
2018-03-03T08:59:37.401Z,2.2
2018-03-03T09:00:39.506Z,2.2
2018-03-03T09:01:41.184Z,2.1
2018-03-03T09:02:42.967Z,2.1
2018-03-03T09:03:44.714Z,2.0
2018-03-03T09:04:46.558Z,2.1
2018-03-03T09:05:48.256Z,2.1
2018-03-03T09:06:50.327Z,2.1
2018-03-03T09:07:52.444Z,2.2
2018-03-03T09:08:54.111Z,2.1
2018-03-03T09:09:55.816Z,2.2
2018-03-03T09:10:59.656Z,2.2
2018-03-03T09:12:01.400Z,2.3
2018-03-03T09:13:03.143Z,2.4
2018-03-03T09:14:04.954Z,2.3
2018-03-03T09:15:06.750Z,2.4
2018-03-03T09:16:08.410Z,2.5
2018-03-03T09:17:10.254Z,2.5
2018-03-03T09:18:11.999Z,2.2
2018-03-03T09:19:13.719Z,2.0
2018-03-03T09:20:15.381Z,2.0
2018-03-03T09:21:17.146Z,1.9
2018-03-03T09:22:18.910Z,1.9
2018-03-03T09:23:21.307Z,1.9
2018-03-03T09:24:23.117Z,2.1
2018-03-03T09:25:24.961Z,2.2
2018-03-03T09:26:27.286Z,2.2
2018-03-03T09:27:30.339Z,2.1
2018-03-03T09:28:32.307Z,2.1
2018-03-03T09:29:36.656Z,2.2
2018-03-03T09:30:38.944Z,2.2
2018-03-03T09:31:41.422Z,2.2
2018-03-03T09:32:43.944Z,2.2
2018-03-03T09:33:46.188Z,2.3
2018-03-03T09:34:48.898Z,2.3
2018-03-03T09:35:50.772Z,2.3
2018-03-03T09:36:52.610Z,2.3
2018-03-03T09:37:54.703Z,2.2
2018-03-03T09:38:56.869Z,2.2
2018-03-03T09:39:58.743Z,2.1
2018-03-03T09:41:01.183Z,2.2
2018-03-03T09:42:02.911Z,2.3
2018-03-03T09:43:05.042Z,2.3
2018-03-03T09:44:08.893Z,2.3
2018-03-03T09:45:11.010Z,2.3
2018-03-03T09:46:13.539Z,2.3
2018-03-03T09:47:15.520Z,2.4
2018-03-03T09:48:17.303Z,2.6
2018-03-03T09:49:19.077Z,2.6
2018-03-03T09:50:21.101Z,2.8
2018-03-03T09:51:23.788Z,2.8
2018-03-03T09:52:26.824Z,2.7
2018-03-03T09:53:29.341Z,2.3
2018-03-03T09:54:31.840Z,2.4
2018-03-03T09:55:33.813Z,2.5
2018-03-03T09:56:37.065Z,2.6
2018-03-03T09:57:38.845Z,2.9
2018-03-03T09:58:40.760Z,3.0
2018-03-03T09:59:42.700Z,3.0
2018-03-03T10:00:45.770Z,3.0
2018-03-03T10:01:52.330Z,3.1
2018-03-03T10:02:49.697Z,3.1
2018-03-03T10:03:53.408Z,3.2
2018-03-03T10:04:55.620Z,3.3
2018-03-03T10:05:57.809Z,3.4
2018-03-03T10:07:00.135Z,3.5
2018-03-03T10:08:01.822Z,3.6
2018-03-03T10:09:03.584Z,3.7
2018-03-03T10:10:05.869Z,3.6
2018-03-03T10:11:07.683Z,3.3
2018-03-03T10:12:10.145Z,2.9
2018-03-03T10:13:12.078Z,2.8
2018-03-03T10:14:13.920Z,2.6
2018-03-03T10:15:16.421Z,2.8
2018-03-03T10:16:19.452Z,2.8
2018-03-03T10:17:22.034Z,3.0
2018-03-03T10:18:23.796Z,3.1
2018-03-03T10:19:25.606Z,3.2
2018-03-03T10:20:27.385Z,3.3
2018-03-03T10:21:29.296Z,3.4
2018-03-03T10:22:31.310Z,3.6
2018-03-03T10:23:35.033Z,3.5
2018-03-03T10:24:36.825Z,3.5
2018-03-03T10:25:38.560Z,3.6
2018-03-03T10:26:41.126Z,3.8
2018-03-03T10:27:43.241Z,3.8
2018-03-03T10:28:45.725Z,3.8
2018-03-03T10:29:48.381Z,3.9
2018-03-03T10:30:50.077Z,4.0
2018-03-03T10:31:52.009Z,4.1
2018-03-03T10:32:53.994Z,4.2
2018-03-03T10:33:55.943Z,4.3
2018-03-03T10:34:57.844Z,4.4
2018-03-03T10:35:59.821Z,4.4
2018-03-03T10:37:01.777Z,4.4
2018-03-03T10:38:03.851Z,4.4
2018-03-03T10:39:07.659Z,4.4
2018-03-03T10:40:09.597Z,4.1
2018-03-03T10:41:11.374Z,3.8
2018-03-03T10:42:13.209Z,3.7
2018-03-03T10:43:14.946Z,3.4
2018-03-03T10:44:16.955Z,3.5
2018-03-03T10:45:18.987Z,3.7
2018-03-03T10:46:20.909Z,4.1
2018-03-03T10:47:22.730Z,4.4
2018-03-03T10:48:24.704Z,4.9
2018-03-03T10:49:26.632Z,5.3
2018-03-03T10:50:28.398Z,5.7
2018-03-03T10:51:30.220Z,6.7
2018-03-03T10:52:32.040Z,7.5
2018-03-03T10:53:33.918Z,8.2
2018-03-03T10:54:35.905Z,8.3
2018-03-03T10:55:37.608Z,8.6
2018-03-03T10:56:39.350Z,8.8
2018-03-03T10:57:41.108Z,8.7
2018-03-03T10:58:43.800Z,8.0
2018-03-03T10:59:45.467Z,7.7
2018-03-03T11:00:47.220Z,7.5
2018-03-03T11:01:48.984Z,7.7
2018-03-03T11:02:54.158Z,7.8
2018-03-03T11:03:55.806Z,7.2
2018-03-03T11:04:57.604Z,7.1
2018-03-03T11:05:59.265Z,7.1
2018-03-03T11:07:00.948Z,7.2
2018-03-03T11:08:02.683Z,7.1
2018-03-03T11:09:04.533Z,7.2
2018-03-03T11:10:07.501Z,7.7
2018-03-03T11:11:11.444Z,8.2
2018-03-03T11:12:13.104Z,8.7
2018-03-03T11:13:14.833Z,8.6
2018-03-03T11:14:17.581Z,7.9
2018-03-03T11:15:19.272Z,7.5
2018-03-03T11:16:21.074Z,6.4
2018-03-03T11:17:22.801Z,6.0
2018-03-03T11:18:25.823Z,5.7
2018-03-03T11:19:27.470Z,5.6
2018-03-03T11:20:29.302Z,5.6
2018-03-03T11:21:30.992Z,5.5
2018-03-03T11:22:32.902Z,5.7
2018-03-03T11:23:34.693Z,5.6
2018-03-03T11:24:36.503Z,5.7
2018-03-03T11:25:38.302Z,5.5
2018-03-03T11:26:40.033Z,5.4
2018-03-03T11:27:41.788Z,5.5
2018-03-03T11:28:43.762Z,5.6
2018-03-03T11:29:45.560Z,5.4
2018-03-03T11:30:47.262Z,5.4
2018-03-03T11:31:49.011Z,5.0
2018-03-03T11:32:50.762Z,5.0
2018-03-03T11:33:52.526Z,5.1
2018-03-03T11:34:54.255Z,5.3
2018-03-03T11:35:55.965Z,5.7
2018-03-03T11:36:57.789Z,6.3
2018-03-03T11:37:59.572Z,7.3
2018-03-03T11:39:01.352Z,8.2
2018-03-03T11:40:03.095Z,8.8
2018-03-03T11:41:05.119Z,9.3
2018-03-03T11:42:06.901Z,9.3
2018-03-03T11:43:09.280Z,9.5
2018-03-03T11:44:11.559Z,9.2
2018-03-03T11:45:16.404Z,9.2
2018-03-03T11:46:18.245Z,9.0
2018-03-03T11:47:20.090Z,9.0
2018-03-03T11:48:24.462Z,9.0
2018-03-03T11:49:26.239Z,8.4
2018-03-03T11:50:27.987Z,8.3
2018-03-03T11:51:29.822Z,8.3
2018-03-03T11:52:31.633Z,8.3
2018-03-03T11:53:35.204Z,8.3
2018-03-03T11:54:36.904Z,8.2
2018-03-03T11:55:38.628Z,8.6
2018-03-03T11:56:40.287Z,8.5
2018-03-03T11:57:42.058Z,9.0
2018-03-03T11:58:43.752Z,9.7
2018-03-03T11:59:45.506Z,10.3
2018-03-03T12:00:47.214Z,10.2
2018-03-03T12:01:48.988Z,10.7
2018-03-03T12:02:50.673Z,11.3
2018-03-03T12:03:52.384Z,11.9
2018-03-03T12:04:54.132Z,12.0
2018-03-03T12:05:56.138Z,12.4
2018-03-03T12:06:58.879Z,12.4
2018-03-03T12:08:00.629Z,12.2
2018-03-03T12:09:02.324Z,12.9
2018-03-03T12:10:04.427Z,13.1
2018-03-03T12:11:06.224Z,13.9
2018-03-03T12:12:07.935Z,13.1
2018-03-03T12:13:09.627Z,12.1
2018-03-03T12:14:11.276Z,11.0
2018-03-03T12:15:13.568Z,11.4
2018-03-03T12:16:15.294Z,12.2
2018-03-03T12:17:16.957Z,12.7
2018-03-03T12:18:18.676Z,13.1
2018-03-03T12:19:20.323Z,13.6
2018-03-03T12:20:21.971Z,13.9
2018-03-03T12:21:25.684Z,14.0
2018-03-03T12:22:27.259Z,13.8
2018-03-03T12:23:29.001Z,14.0
2018-03-03T12:24:30.717Z,14.5
2018-03-03T12:25:32.464Z,14.5
2018-03-03T12:26:34.141Z,14.7
2018-03-03T12:27:35.865Z,14.8
2018-03-03T12:28:37.512Z,14.8
2018-03-03T12:29:39.223Z,14.8
2018-03-03T12:30:41.082Z,14.9
2018-03-03T12:31:43.200Z,14.5
2018-03-03T12:32:45.626Z,14.5
2018-03-03T12:33:47.284Z,14.7
2018-03-03T12:34:48.947Z,15.0
2018-03-03T12:35:50.684Z,15.0
2018-03-03T12:36:52.347Z,13.9
2018-03-03T12:37:53.999Z,13.3
2018-03-03T12:38:55.641Z,13.7
2018-03-03T12:39:57.409Z,14.1
2018-03-03T12:40:59.110Z,14.3
2018-03-03T12:42:02.978Z,14.6
2018-03-03T12:43:04.647Z,14.9
2018-03-03T12:44:06.308Z,14.8
2018-03-03T12:45:08.165Z,14.6
2018-03-03T12:46:09.913Z,13.9
2018-03-03T12:47:11.904Z,13.4
2018-03-03T12:48:13.930Z,12.6
2018-03-03T12:49:15.631Z,12.2
2018-03-03T12:50:17.327Z,11.8
2018-03-03T12:51:19.002Z,11.4
2018-03-03T12:52:20.721Z,10.8
2018-03-03T12:53:22.398Z,10.6
2018-03-03T12:54:24.203Z,10.4
2018-03-03T12:55:25.926Z,9.9
2018-03-03T12:56:27.782Z,9.4
2018-03-03T12:57:29.440Z,9.7
2018-03-03T12:58:31.174Z,10.1
2018-03-03T12:59:32.742Z,9.9
2018-03-03T13:00:35.173Z,9.8
2018-03-03T13:01:36.845Z,10.2
2018-03-03T13:02:38.524Z,10.4
2018-03-03T13:03:40.177Z,10.6
2018-03-03T13:04:41.840Z,10.8
2018-03-03T13:05:43.505Z,11.1
2018-03-03T13:06:45.145Z,11.4
2018-03-03T13:07:46.796Z,11.7
2018-03-03T13:08:48.437Z,11.9
2018-03-03T13:09:50.077Z,12.2
2018-03-03T13:10:51.712Z,12.5
2018-03-03T13:11:58.328Z,12.8
2018-03-03T13:12:59.870Z,12.7
2018-03-03T13:14:01.613Z,12.2
2018-03-03T13:15:04.572Z,12.2
2018-03-03T13:16:06.333Z,12.3
2018-03-03T13:17:11.084Z,12.4
2018-03-03T13:18:12.741Z,12.8
2018-03-03T13:19:14.617Z,13.0
2018-03-03T13:20:16.525Z,13.1
2018-03-03T13:21:18.349Z,12.9
2018-03-03T13:22:20.213Z,12.3
2018-03-03T13:23:21.845Z,12.1
2018-03-03T13:24:23.526Z,11.8
2018-03-03T13:25:25.490Z,11.6
2018-03-03T13:26:27.157Z,11.5
2018-03-03T13:27:28.965Z,11.4
2018-03-03T13:28:30.585Z,11.3
2018-03-03T13:29:32.307Z,11.2
2018-03-03T13:30:34.098Z,10.8
2018-03-03T13:31:35.760Z,10.6
2018-03-03T13:32:37.425Z,10.3
2018-03-03T13:33:39.183Z,9.8
2018-03-03T13:34:40.874Z,9.5
2018-03-03T13:35:42.553Z,9.3
2018-03-03T13:36:44.153Z,8.9
2018-03-03T13:37:45.846Z,8.7
2018-03-03T13:38:47.494Z,8.7
2018-03-03T13:39:49.182Z,8.7
2018-03-03T13:40:50.858Z,8.6
2018-03-03T13:41:52.498Z,8.6
2018-03-03T13:42:54.138Z,8.5
2018-03-03T13:43:55.769Z,8.4
2018-03-03T13:44:57.412Z,8.3
2018-03-03T13:45:59.084Z,8.3
2018-03-03T13:47:00.722Z,8.1
2018-03-03T13:48:02.357Z,8.1
2018-03-03T13:49:04.044Z,8.1
2018-03-03T13:50:05.875Z,8.0
2018-03-03T13:51:07.523Z,8.1
2018-03-03T13:52:09.181Z,8.0
2018-03-03T13:53:10.841Z,8.2
2018-03-03T13:54:12.533Z,8.1
2018-03-03T13:55:14.347Z,8.1
2018-03-03T13:56:16.088Z,8.2
2018-03-03T13:57:17.829Z,8.2
2018-03-03T13:58:19.485Z,8.1
2018-03-03T13:59:21.326Z,8.2
2018-03-03T14:00:22.958Z,8.2
2018-03-03T14:01:27.388Z,8.0
2018-03-03T14:02:29.038Z,7.8
2018-03-03T14:03:30.719Z,7.9
2018-03-03T14:04:35.785Z,7.8
2018-03-03T14:05:37.810Z,7.9
2018-03-03T14:06:39.574Z,7.8
2018-03-03T14:07:42.291Z,7.7
2018-03-03T14:08:46.169Z,7.8
2018-03-03T14:09:49.943Z,7.7
2018-03-03T14:10:55.655Z,7.8
2018-03-03T14:11:59.917Z,7.6
2018-03-03T14:13:01.672Z,7.5
2018-03-03T14:14:03.516Z,7.5